Pandale, Texas
Current Conditions -  °F | °C
As of 9:35 AM on Friday 19 Dec 2014 (Local Time) from KOZA Reporting Station
Haze Haze  
Wind Chill: 40°   Ceiling: 200
Heat Index: 45°   Visibility: 3mi
Dew Point: 43°   Wind: 9mph
Humidity: 93%   Direction: 60°ENE
Pressure: 30.19"   Gusts: NA
Location:  30.18°N, 101.55°W
Report Text: KOZA 191535Z AUTO 06008KT 3SM BR OVC002 07/06 A3019 RMK AO2
Loading
Personal Weather Stations






























Interactive Weather Map New forecast layout! Learn more

10-Day Weather Forecast

Advertisements
Track Severe Weather on mobile